EGAAEGAE

Guest
Details From EGAA - Belfast Aldergrove
To EGAE - Londonderry Eglinton
Flight Number -
Tags Generated
Created
Modified
Stats Distance 40 nm / 73 km
Max Altitude 0 ft / 0 m
Waypoints 2
Social Downloads 1
Likes 0
Share VATSIM

Download

Looking for another format? Having issues loading an existing format? Contact us
Advertisement - Login to hide

Notes

Generated

Route

EGAA EGAE

ID Type Via Altitude Latitude Longitude Leg Dist Tot Dist Heading (true) Name
O EGAA APT - 0 ft / 0 m 54.65792˚ -6.22862˚ - 0 nm - -
O EGAE APT - 0 ft / 0 m 55.03672˚ -7.16540˚ 39 nm 39 nm 305° / 305° -

Altitude Profile

Advertisement - Login to hide

EGAA

Details ICAO EGAA (BFS)
Name Belfast Aldergrove
Region United Kingdom
Timezone Europe/London (UTC+1.0)
Stats Elevation 268 ft / 82 m (AMSL)
Location 54.653878° -6.220006°
Runways 2
Magnetic Variation 3.167° W

METAR

EGAA 210520Z 18005KT 7000 -RA BKN009 11/10 Q1016 REDZ

Decode

TAF

TAF AMD EGAA 210211Z 2102/2124 16010KT 8000 -RA SCT006 BKN015 TEMPO 2102/2110 3500 RADZ +RA BKN006 PROB40 TEMPO 2102/2110 BKN004 BECMG 2107/2110 34013KT 9999 NSW TEMPO 2110/2124 BKN012 PROB40 TEMPO 2110/2115 6000 -RADZ BKN008

Decode

Departure Runways

ID Width Length Bearing (true) Bearing (mag) Surface Threshold Offset Overrun Length
07 148 ft / 45 m 9,095 ft / 2,772 m 65.01° 68.18° Asphalt 0 ft / 0 m 0 ft / 0 m
17 148 ft / 45 m 5,896 ft / 1,797 m 161.98° 165.15° Asphalt 525 ft / 160 m 0 ft / 0 m
25 148 ft / 45 m 9,095 ft / 2,772 m 245.05° 248.22° Asphalt 0 ft / 0 m 0 ft / 0 m
35 148 ft / 45 m 5,896 ft / 1,797 m 341.99° 345.16° Asphalt 502 ft / 153 m 0 ft / 0 m

EGAE

Details ICAO EGAE (LDY)
Name Londonderry Eglinton
Region United Kingdom
Timezone Europe/London (UTC+1.0)
Stats Elevation 22 ft / 7 m (AMSL)
Location 55.042812° -7.161188°
Runways 1
Magnetic Variation 3.635° W

METAR

EGAE 210520Z 36007KT 3000 RA BKN008 11/10 Q1016

Decode

TAF

Not found

Destination Runways

ID Width Length Bearing (true) Bearing (mag) Surface Threshold Offset Overrun Length
08 148 ft / 45 m 6,058 ft / 1,846 m 73.07° 76.71° Asphalt 407 ft / 124 m 0 ft / 0 m
26 148 ft / 45 m 6,058 ft / 1,846 m 253.09° 256.73° Asphalt 0 ft / 0 m 0 ft / 0 m

Approach Navaids

Runway Type Ident Frequency Range Bearing (true) Bearing (mag) Slope Elevation
26 Localiser IEGT 108.30 MHz 18 nm / 33 km 253.08° 256.72° - 22 ft / 7 m (AMSL)
26 Glidescope IEGT 108.30 MHz 10 nm / 19 km 253.08° 256.72° 3.00° 22 ft / 7 m (AMSL)
26 DME IEGT 108.30 MHz 18 nm / 33 km - - - 28 ft / 9 m (AMSL)

Popular Alternatives